createdAt,value
2023-01-06T00:00:36.841Z,15.20
2023-01-06T00:03:04.015Z,15.11
2023-01-06T00:05:31.337Z,15.11
2023-01-06T00:07:59.029Z,15.17
2023-01-06T00:10:25.594Z,15.22
2023-01-06T00:12:52.460Z,15.19
2023-01-06T00:15:19.479Z,15.23
2023-01-06T00:17:46.270Z,15.19
2023-01-06T00:20:13.320Z,15.16
2023-01-06T00:22:41.082Z,15.18
2023-01-06T00:25:10.182Z,15.06
2023-01-06T00:27:37.543Z,15.10
2023-01-06T00:30:04.578Z,15.11
2023-01-06T00:32:31.151Z,15.07
2023-01-06T00:34:58.741Z,15.10
2023-01-06T00:37:26.089Z,15.13
2023-01-06T00:39:52.627Z,15.14
2023-01-06T00:42:19.268Z,15.05
2023-01-06T00:44:45.827Z,15.06
2023-01-06T00:47:12.628Z,15.02
2023-01-06T00:49:39.273Z,15.12
2023-01-06T00:52:06.216Z,15.10
2023-01-06T00:54:32.797Z,15.08
2023-01-06T00:56:59.311Z,15.02
2023-01-06T00:59:26.717Z,14.96
2023-01-06T01:01:56.531Z,14.97
2023-01-06T01:04:24.511Z,14.93
2023-01-06T01:06:52.730Z,14.85
2023-01-06T01:09:30.784Z,14.77
2023-01-06T01:12:10.661Z,14.72
2023-01-06T01:14:42.886Z,14.65
2023-01-06T01:17:11.146Z,14.61
2023-01-06T01:19:38.821Z,14.57
2023-01-06T01:22:06.162Z,14.48
2023-01-06T01:24:32.898Z,14.41
2023-01-06T01:27:00.126Z,14.37
2023-01-06T01:29:26.869Z,14.31
2023-01-06T01:31:54.058Z,14.19
2023-01-06T01:34:21.660Z,14.20
2023-01-06T01:36:50.783Z,14.22
2023-01-06T01:39:19.514Z,14.12
2023-01-06T01:41:46.702Z,14.13
2023-01-06T01:44:53.148Z,14.12
2023-01-06T01:47:47.403Z,14.08
2023-01-06T01:50:30.932Z,14.00
2023-01-06T01:53:05.740Z,13.96
2023-01-06T01:55:34.188Z,13.84
2023-01-06T01:58:12.670Z,13.80
2023-01-06T02:00:41.291Z,13.80
2023-01-06T02:03:08.378Z,13.70
2023-01-06T02:05:40.080Z,13.65
2023-01-06T02:08:20.290Z,13.55
2023-01-06T02:10:46.875Z,13.54
2023-01-06T02:13:13.451Z,13.47
2023-01-06T02:15:43.121Z,13.43
2023-01-06T02:18:33.090Z,13.48
2023-01-06T02:21:13.889Z,13.42
2023-01-06T02:24:05.834Z,13.37
2023-01-06T02:26:44.325Z,13.32
2023-01-06T02:29:41.751Z,13.22
2023-01-06T02:32:08.282Z,13.18
2023-01-06T02:35:01.824Z,13.08
2023-01-06T02:37:44.045Z,13.07
2023-01-06T02:40:30.367Z,13.04
2023-01-06T02:43:03.263Z,13.06
2023-01-06T02:45:38.744Z,13.01
2023-01-06T02:48:26.838Z,12.91
2023-01-06T02:51:18.697Z,12.87
2023-01-06T02:54:19.260Z,12.79
2023-01-06T02:57:02.101Z,12.76
2023-01-06T02:59:37.586Z,12.70
2023-01-06T03:02:06.395Z,12.64
2023-01-06T03:04:39.193Z,12.62
2023-01-06T03:07:08.082Z,12.61
2023-01-06T03:09:38.089Z,12.63
2023-01-06T03:12:23.220Z,12.52
2023-01-06T03:14:54.590Z,12.44
2023-01-06T03:17:23.163Z,12.44
2023-01-06T03:19:49.843Z,12.48
2023-01-06T03:22:17.641Z,12.45
2023-01-06T03:24:46.544Z,12.38
2023-01-06T03:27:15.243Z,12.34
2023-01-06T03:29:41.877Z,12.36
2023-01-06T03:32:38.124Z,12.33
2023-01-06T03:35:13.833Z,12.35
2023-01-06T03:37:52.706Z,12.26
2023-01-06T03:40:25.360Z,12.25
2023-01-06T03:43:32.055Z,12.18
2023-01-06T03:46:42.086Z,12.02
2023-01-06T03:49:29.664Z,12.07
2023-01-06T03:52:06.599Z,12.05
2023-01-06T03:55:08.404Z,11.95
2023-01-06T03:57:44.140Z,11.86
2023-01-06T04:00:18.418Z,11.88
2023-01-06T04:02:54.353Z,11.89
2023-01-06T04:05:26.161Z,11.84
2023-01-06T04:07:53.393Z,11.82
2023-01-06T04:10:22.639Z,11.77
2023-01-06T04:12:52.565Z,11.83
2023-01-06T04:15:25.923Z,11.84
2023-01-06T04:17:54.863Z,11.76
2023-01-06T04:20:30.919Z,11.71
2023-01-06T04:23:04.162Z,11.63
2023-01-06T04:25:35.695Z,11.56
2023-01-06T04:28:09.011Z,11.63
2023-01-06T04:30:35.627Z,11.59
2023-01-06T04:33:02.733Z,11.58
2023-01-06T04:35:29.338Z,11.61
2023-01-06T04:37:55.938Z,11.53
2023-01-06T04:40:22.491Z,11.55
2023-01-06T04:43:07.148Z,11.53
2023-01-06T04:45:35.003Z,11.50
2023-01-06T04:48:02.060Z,11.36
2023-01-06T04:50:28.639Z,11.13
2023-01-06T04:52:55.187Z,11.19
2023-01-06T04:55:21.898Z,11.20
2023-01-06T04:57:48.551Z,11.27
2023-01-06T05:00:15.424Z,11.23
2023-01-06T05:02:42.003Z,11.09
2023-01-06T05:05:09.055Z,11.05
2023-01-06T05:07:35.718Z,11.17
2023-01-06T05:10:02.569Z,11.20
2023-01-06T05:12:29.263Z,11.18
2023-01-06T05:14:55.800Z,11.06
2023-01-06T05:17:22.358Z,11.15
2023-01-06T05:19:49.017Z,11.12
2023-01-06T05:22:15.753Z,11.00
2023-01-06T05:24:42.259Z,11.07
2023-01-06T05:27:09.026Z,11.07
2023-01-06T05:29:36.087Z,11.09
2023-01-06T05:32:03.640Z,11.10
2023-01-06T05:34:30.202Z,11.06
2023-01-06T05:36:57.059Z,11.02
2023-01-06T05:39:23.844Z,11.06
2023-01-06T05:41:50.526Z,11.01
2023-01-06T05:44:18.847Z,10.98
2023-01-06T05:46:46.612Z,10.95
2023-01-06T05:49:13.301Z,10.94
2023-01-06T05:51:39.996Z,10.92
2023-01-06T05:54:10.036Z,10.90
2023-01-06T05:56:36.787Z,10.89
2023-01-06T05:59:03.571Z,10.89
2023-01-06T06:01:32.005Z,10.84
2023-01-06T06:03:58.822Z,10.73
2023-01-06T06:06:27.780Z,10.77
2023-01-06T06:08:54.352Z,10.83
2023-01-06T06:11:22.168Z,10.76
2023-01-06T06:13:54.293Z,10.80
2023-01-06T06:16:24.705Z,10.70
2023-01-06T06:18:53.419Z,10.78
2023-01-06T06:21:23.325Z,10.72
2023-01-06T06:23:52.060Z,10.81
2023-01-06T06:26:18.601Z,10.88
2023-01-06T06:28:45.334Z,10.92
2023-01-06T06:31:16.218Z,10.84
2023-01-06T06:33:42.790Z,10.83
2023-01-06T06:36:12.220Z,10.80
2023-01-06T06:38:39.401Z,10.82
2023-01-06T06:41:05.996Z,10.80
2023-01-06T06:43:33.127Z,10.77
2023-01-06T06:45:59.802Z,10.76
2023-01-06T06:48:29.054Z,10.66
2023-01-06T06:51:07.497Z,10.73
2023-01-06T06:53:35.139Z,10.64
2023-01-06T06:56:02.130Z,10.64
2023-01-06T06:58:28.803Z,10.66
2023-01-06T07:00:55.434Z,10.68
2023-01-06T07:03:23.015Z,10.58
2023-01-06T07:05:51.784Z,10.62
2023-01-06T07:08:18.438Z,10.57
2023-01-06T07:10:44.989Z,10.51
2023-01-06T07:13:11.832Z,10.63
2023-01-06T07:15:38.436Z,10.57
2023-01-06T07:18:06.455Z,10.54
2023-01-06T07:20:34.472Z,10.49
2023-01-06T07:23:01.043Z,10.53
2023-01-06T07:25:27.749Z,10.57
2023-01-06T07:27:59.493Z,10.66
2023-01-06T07:30:27.533Z,10.62
2023-01-06T07:32:54.094Z,10.72
2023-01-06T07:35:20.730Z,10.67
2023-01-06T07:37:47.263Z,10.77
2023-01-06T07:40:14.472Z,10.74
2023-01-06T07:42:41.057Z,10.74
2023-01-06T07:45:08.122Z,10.86
2023-01-06T07:47:34.682Z,10.89
2023-01-06T07:50:01.539Z,10.92
2023-01-06T07:52:28.112Z,11.03
2023-01-06T07:54:59.168Z,11.04
2023-01-06T07:57:26.806Z,11.02
2023-01-06T07:59:53.416Z,11.17
2023-01-06T08:02:20.352Z,11.22
2023-01-06T08:04:47.221Z,11.19
2023-01-06T08:07:15.211Z,11.32
2023-01-06T08:09:41.843Z,11.45
2023-01-06T08:12:08.469Z,11.51
2023-01-06T08:14:35.047Z,11.62
2023-01-06T08:17:01.667Z,11.66
2023-01-06T08:19:28.174Z,11.71
2023-01-06T08:21:54.732Z,11.75
2023-01-06T08:24:21.267Z,11.81
2023-01-06T08:26:47.793Z,11.83
2023-01-06T08:29:14.421Z,11.98
2023-01-06T08:31:41.017Z,12.06
2023-01-06T08:34:07.622Z,12.16
2023-01-06T08:36:34.192Z,12.23
2023-01-06T08:39:00.722Z,12.37
2023-01-06T08:41:27.353Z,12.46
2023-01-06T08:43:55.044Z,12.67
2023-01-06T08:46:22.007Z,12.72
2023-01-06T08:48:48.774Z,12.83
2023-01-06T08:51:19.325Z,12.97
2023-01-06T08:53:46.838Z,13.11
2023-01-06T08:56:15.688Z,13.20
2023-01-06T08:58:42.311Z,13.19
2023-01-06T09:01:17.367Z,13.22
2023-01-06T09:03:43.947Z,13.45
2023-01-06T09:06:10.533Z,13.68
2023-01-06T09:08:37.773Z,13.75
2023-01-06T09:11:06.803Z,13.99
2023-01-06T09:13:33.649Z,14.06
2023-01-06T09:16:00.310Z,14.18
2023-01-06T09:18:26.909Z,14.31
2023-01-06T09:20:53.457Z,14.33
2023-01-06T09:23:21.893Z,14.60
2023-01-06T09:25:48.414Z,14.72
2023-01-06T09:28:14.935Z,14.85
2023-01-06T09:30:41.562Z,14.67
2023-01-06T09:33:08.120Z,15.00
2023-01-06T09:35:34.683Z,15.09
2023-01-06T09:38:01.240Z,15.29
2023-01-06T09:40:55.382Z,15.31
2023-01-06T09:43:54.051Z,15.52
2023-01-06T09:46:26.762Z,15.67
2023-01-06T09:49:10.232Z,15.78
2023-01-06T09:51:37.913Z,15.77
2023-01-06T09:54:26.056Z,15.91
2023-01-06T09:57:02.726Z,15.66
2023-01-06T09:59:40.025Z,15.94
2023-01-06T10:02:15.934Z,15.79
2023-01-06T10:04:42.494Z,15.95
2023-01-06T10:07:35.195Z,16.17
2023-01-06T10:10:10.669Z,16.27
2023-01-06T10:13:10.339Z,15.69
2023-01-06T10:15:43.255Z,16.24
2023-01-06T10:18:21.801Z,16.32
2023-01-06T10:21:14.336Z,16.41
2023-01-06T10:23:43.537Z,16.27
2023-01-06T10:26:22.541Z,15.97
2023-01-06T10:28:53.783Z,15.89
2023-01-06T10:31:25.840Z,16.27
2023-01-06T10:33:54.550Z,16.05
2023-01-06T10:36:30.704Z,16.26
2023-01-06T10:38:58.970Z,16.40
2023-01-06T10:41:41.807Z,16.32
2023-01-06T10:44:11.580Z,16.72
2023-01-06T10:46:39.112Z,16.40
2023-01-06T10:49:12.178Z,16.01
2023-01-06T10:51:42.346Z,16.18
2023-01-06T10:54:15.252Z,16.78
2023-01-06T10:56:48.771Z,17.15
2023-01-06T10:59:15.327Z,17.67
2023-01-06T11:01:57.672Z,18.15
2023-01-06T11:04:28.111Z,17.59
2023-01-06T11:07:03.978Z,18.23
2023-01-06T11:09:38.924Z,18.68
2023-01-06T11:12:20.900Z,19.20
2023-01-06T11:14:55.839Z,21.30
2023-01-06T11:17:23.211Z,22.27
2023-01-06T11:20:14.277Z,22.59
2023-01-06T11:22:42.637Z,21.97
2023-01-06T11:25:21.581Z,22.47
2023-01-06T11:28:08.787Z,22.44
2023-01-06T11:30:49.667Z,22.88
2023-01-06T11:33:25.536Z,23.88
2023-01-06T11:35:53.336Z,23.80
2023-01-06T11:38:22.025Z,22.94
2023-01-06T11:40:53.512Z,21.06
2023-01-06T11:43:28.947Z,20.37
2023-01-06T11:45:57.445Z,19.20
2023-01-06T11:48:38.449Z,17.92
2023-01-06T11:51:08.863Z,17.51
2023-01-06T11:53:37.638Z,17.76
2023-01-06T11:56:23.412Z,17.68
2023-01-06T11:58:55.874Z,17.52
2023-01-06T12:01:57.820Z,17.59
2023-01-06T12:04:35.877Z,17.30
2023-01-06T12:07:30.027Z,17.96
2023-01-06T12:10:03.261Z,18.24
2023-01-06T12:12:30.125Z,18.38
2023-01-06T12:14:57.226Z,18.30
2023-01-06T12:17:37.864Z,18.53
2023-01-06T12:20:26.008Z,18.57
2023-01-06T12:23:14.628Z,19.66
2023-01-06T12:25:54.857Z,18.68
2023-01-06T12:28:31.271Z,18.67
2023-01-06T12:31:06.681Z,18.02
2023-01-06T12:33:40.440Z,17.69
2023-01-06T12:36:31.078Z,17.65
2023-01-06T12:39:03.006Z,18.37
2023-01-06T12:41:39.918Z,18.85
2023-01-06T12:44:21.784Z,18.98
2023-01-06T12:46:58.954Z,21.22
2023-01-06T12:49:45.791Z,21.86
2023-01-06T12:52:22.256Z,23.03
2023-01-06T12:54:53.606Z,25.57
2023-01-06T12:57:25.107Z,26.61
2023-01-06T13:00:03.832Z,25.51
2023-01-06T13:02:57.715Z,25.07
2023-01-06T13:05:48.697Z,25.39
2023-01-06T13:08:33.201Z,22.70
2023-01-06T13:11:14.824Z,21.95
2023-01-06T13:13:54.330Z,21.20
2023-01-06T13:16:29.920Z,23.17
2023-01-06T13:19:33.996Z,22.38
2023-01-06T13:22:03.514Z,23.81
2023-01-06T13:24:44.964Z,24.70
2023-01-06T13:27:28.373Z,25.48
2023-01-06T13:30:24.026Z,25.58
2023-01-06T13:33:01.397Z,24.75
2023-01-06T13:35:33.162Z,26.33
2023-01-06T13:38:17.976Z,25.42
2023-01-06T13:40:46.495Z,23.17
2023-01-06T13:43:32.118Z,23.64
2023-01-06T13:46:09.611Z,21.42
2023-01-06T13:48:41.147Z,20.33
2023-01-06T13:51:11.404Z,19.07
2023-01-06T13:53:43.255Z,18.01
2023-01-06T13:56:12.770Z,17.48
2023-01-06T13:58:46.382Z,17.65
2023-01-06T14:01:31.172Z,17.70
2023-01-06T14:04:32.887Z,17.01
2023-01-06T14:07:00.520Z,17.38
2023-01-06T14:09:27.638Z,17.16
2023-01-06T14:11:54.795Z,16.64
2023-01-06T14:14:33.617Z,16.80
2023-01-06T14:17:00.203Z,16.95
2023-01-06T14:19:39.717Z,16.94
2023-01-06T14:22:21.726Z,16.42
2023-01-06T14:24:54.741Z,16.69
2023-01-06T14:27:53.611Z,16.05
2023-01-06T14:30:31.899Z,16.41
2023-01-06T14:33:05.378Z,16.14
2023-01-06T14:35:36.765Z,16.45
2023-01-06T14:38:07.394Z,16.35
2023-01-06T14:40:39.392Z,16.07
2023-01-06T14:43:42.421Z,15.80
2023-01-06T14:46:17.429Z,16.23
2023-01-06T14:48:53.849Z,16.57
2023-01-06T14:51:22.148Z,16.09
2023-01-06T14:53:59.515Z,15.56
2023-01-06T14:56:28.945Z,15.33
2023-01-06T14:59:15.754Z,15.69
2023-01-06T15:01:44.362Z,15.85
2023-01-06T15:04:24.245Z,15.74
2023-01-06T15:07:18.231Z,16.00
2023-01-06T15:09:50.234Z,16.08
2023-01-06T15:12:27.756Z,16.29
2023-01-06T15:14:54.612Z,16.04
2023-01-06T15:17:21.807Z,16.03
2023-01-06T15:19:51.307Z,16.02
2023-01-06T15:22:21.287Z,16.13
2023-01-06T15:24:48.477Z,15.90
2023-01-06T15:27:17.923Z,16.08
2023-01-06T15:29:56.057Z,15.64
2023-01-06T15:32:25.677Z,15.96
2023-01-06T15:34:56.506Z,15.89
2023-01-06T15:37:25.344Z,15.88
2023-01-06T15:39:52.902Z,15.96
2023-01-06T15:42:23.659Z,16.00
2023-01-06T15:44:56.602Z,16.01
2023-01-06T15:47:40.691Z,16.10
2023-01-06T15:50:16.698Z,15.99
2023-01-06T15:53:00.066Z,16.12
2023-01-06T15:55:31.999Z,15.93
2023-01-06T15:58:23.683Z,15.89
2023-01-06T16:00:58.706Z,15.88
2023-01-06T16:03:27.924Z,15.44
2023-01-06T16:06:12.856Z,15.63
2023-01-06T16:08:41.606Z,15.57
2023-01-06T16:11:17.202Z,15.16
2023-01-06T16:13:56.646Z,15.25
2023-01-06T16:16:31.038Z,15.35
2023-01-06T16:18:57.888Z,15.01
2023-01-06T16:21:31.802Z,15.31
2023-01-06T16:24:00.134Z,14.95
2023-01-06T16:26:40.928Z,14.82
2023-01-06T16:29:23.795Z,15.25
2023-01-06T16:31:50.322Z,15.08
2023-01-06T16:34:22.642Z,14.97
2023-01-06T16:36:49.672Z,15.28
2023-01-06T16:39:16.352Z,15.27
2023-01-06T16:42:01.249Z,15.24
2023-01-06T16:44:32.263Z,15.35
2023-01-06T16:46:59.919Z,15.32
2023-01-06T16:49:26.484Z,14.79
2023-01-06T16:51:54.639Z,14.96
2023-01-06T16:54:22.341Z,15.23
2023-01-06T16:56:50.132Z,14.92
2023-01-06T16:59:18.454Z,15.34
2023-01-06T17:01:47.490Z,15.52
2023-01-06T17:04:15.268Z,15.48
2023-01-06T17:06:44.107Z,15.50
2023-01-06T17:09:19.221Z,15.14
2023-01-06T17:11:47.219Z,15.33
2023-01-06T17:14:15.934Z,15.35
2023-01-06T17:16:43.089Z,15.29
2023-01-06T17:19:28.272Z,15.03
2023-01-06T17:22:27.865Z,15.31
2023-01-06T17:24:59.241Z,15.38
2023-01-06T17:27:27.775Z,15.32
2023-01-06T17:29:58.704Z,15.47
2023-01-06T17:32:37.719Z,15.50
2023-01-06T17:35:42.352Z,15.41
2023-01-06T17:38:19.714Z,15.19
2023-01-06T17:40:46.390Z,15.38
2023-01-06T17:43:26.965Z,15.41
2023-01-06T17:45:53.803Z,15.45
2023-01-06T17:48:20.829Z,15.39
2023-01-06T17:50:54.967Z,15.24
2023-01-06T17:53:50.450Z,15.13
2023-01-06T17:56:17.262Z,15.31
2023-01-06T17:58:45.332Z,15.39
2023-01-06T18:01:19.677Z,15.25
2023-01-06T18:03:46.915Z,15.09
2023-01-06T18:06:23.121Z,15.13
2023-01-06T18:08:59.160Z,15.22
2023-01-06T18:11:28.911Z,15.15
2023-01-06T18:13:58.141Z,15.09
2023-01-06T18:16:33.200Z,15.10
2023-01-06T18:19:17.210Z,15.12
2023-01-06T18:21:45.601Z,15.09
2023-01-06T18:24:26.509Z,14.93
2023-01-06T18:26:56.868Z,14.74
2023-01-06T18:29:36.665Z,15.06
2023-01-06T18:32:15.447Z,15.18
2023-01-06T18:34:44.692Z,15.24
2023-01-06T18:37:11.382Z,15.35
2023-01-06T18:39:44.139Z,15.39
2023-01-06T18:42:23.328Z,15.41
2023-01-06T18:44:54.975Z,15.40
2023-01-06T18:47:23.462Z,15.43
2023-01-06T18:49:55.668Z,15.36
2023-01-06T18:52:45.189Z,15.43
2023-01-06T18:55:22.112Z,15.34
2023-01-06T18:58:19.303Z,15.41
2023-01-06T19:00:54.707Z,15.33
2023-01-06T19:03:38.296Z,15.36
2023-01-06T19:06:10.954Z,15.19
2023-01-06T19:08:40.166Z,15.26
2023-01-06T19:11:15.624Z,15.05
2023-01-06T19:13:42.385Z,15.14
2023-01-06T19:16:32.681Z,15.20
2023-01-06T19:19:21.937Z,15.16
2023-01-06T19:21:48.559Z,15.12
2023-01-06T19:24:27.563Z,14.77
2023-01-06T19:26:56.945Z,14.83
2023-01-06T19:29:30.770Z,14.75
2023-01-06T19:31:59.955Z,14.72
2023-01-06T19:34:26.767Z,14.73
2023-01-06T19:36:56.833Z,14.77
2023-01-06T19:39:30.423Z,14.83
2023-01-06T19:42:16.896Z,14.73
2023-01-06T19:44:43.479Z,14.80
2023-01-06T19:47:19.190Z,14.92
2023-01-06T19:49:52.646Z,14.92
2023-01-06T19:52:31.197Z,14.74
2023-01-06T19:55:16.535Z,14.64
2023-01-06T19:57:50.832Z,14.62
2023-01-06T20:00:47.030Z,14.69
2023-01-06T20:03:29.725Z,15.01
2023-01-06T20:05:56.309Z,14.99
2023-01-06T20:08:22.850Z,14.99
2023-01-06T20:10:49.458Z,14.92
2023-01-06T20:13:16.083Z,14.69
2023-01-06T20:15:42.819Z,14.78
2023-01-06T20:18:09.480Z,14.91
2023-01-06T20:20:36.040Z,14.88
2023-01-06T20:23:02.630Z,14.90
2023-01-06T20:25:29.197Z,14.82
2023-01-06T20:27:55.761Z,14.96
2023-01-06T20:30:22.307Z,15.04
2023-01-06T20:32:48.922Z,14.96
2023-01-06T20:35:16.734Z,14.74
2023-01-06T20:37:43.242Z,14.86
2023-01-06T20:40:10.281Z,14.83
2023-01-06T20:42:36.838Z,14.76
2023-01-06T20:45:04.180Z,14.88
2023-01-06T20:47:30.762Z,14.79
2023-01-06T20:49:57.358Z,14.74
2023-01-06T20:52:23.882Z,14.84
2023-01-06T20:54:50.945Z,14.68
2023-01-06T20:57:17.502Z,14.78
2023-01-06T20:59:44.140Z,14.84
2023-01-06T21:02:10.892Z,14.84
2023-01-06T21:04:37.513Z,14.72
2023-01-06T21:07:04.111Z,14.73
2023-01-06T21:09:30.763Z,14.69
2023-01-06T21:11:57.560Z,14.72
2023-01-06T21:14:24.097Z,14.77
2023-01-06T21:16:50.797Z,14.81
2023-01-06T21:19:17.834Z,14.89
2023-01-06T21:21:44.385Z,14.85
2023-01-06T21:24:10.931Z,14.90
2023-01-06T21:26:37.471Z,14.98
2023-01-06T21:29:04.019Z,14.96
2023-01-06T21:31:30.515Z,14.95
2023-01-06T21:33:57.095Z,14.96
2023-01-06T21:36:23.647Z,14.93
2023-01-06T21:38:50.155Z,14.99
2023-01-06T21:41:34.944Z,14.91
2023-01-06T21:44:01.828Z,14.97
2023-01-06T21:46:28.567Z,14.91
2023-01-06T21:48:55.129Z,14.96
2023-01-06T21:51:21.795Z,15.01
2023-01-06T21:53:48.356Z,14.92
2023-01-06T21:56:15.027Z,14.99
2023-01-06T21:58:41.579Z,14.95
2023-01-06T22:01:08.279Z,14.99
2023-01-06T22:03:34.923Z,14.99
2023-01-06T22:06:03.065Z,14.95
2023-01-06T22:08:31.159Z,14.98
2023-01-06T22:10:58.026Z,14.97
2023-01-06T22:13:25.313Z,14.96
2023-01-06T22:15:51.948Z,14.91
2023-01-06T22:18:18.767Z,14.95
2023-01-06T22:20:45.999Z,14.91
2023-01-06T22:23:18.120Z,14.88
2023-01-06T22:25:44.746Z,14.85
2023-01-06T22:28:11.243Z,14.84
2023-01-06T22:30:38.211Z,14.86
2023-01-06T22:33:04.923Z,14.84
2023-01-06T22:35:31.480Z,14.81
2023-01-06T22:37:59.152Z,14.85
2023-01-06T22:40:26.859Z,14.72
2023-01-06T22:42:53.408Z,14.82
2023-01-06T22:45:20.087Z,14.71
2023-01-06T22:47:46.631Z,14.77
2023-01-06T22:50:13.184Z,14.74
2023-01-06T22:52:40.008Z,14.80
2023-01-06T22:55:07.354Z,14.74
2023-01-06T22:57:33.932Z,14.76
2023-01-06T23:00:00.659Z,14.69
2023-01-06T23:02:27.428Z,14.72
2023-01-06T23:04:54.090Z,14.71
2023-01-06T23:07:21.016Z,14.79
2023-01-06T23:09:47.550Z,14.77
2023-01-06T23:12:14.430Z,14.81
2023-01-06T23:14:41.002Z,14.75
2023-01-06T23:17:07.583Z,14.67
2023-01-06T23:19:34.128Z,14.77
2023-01-06T23:22:00.674Z,14.73
2023-01-06T23:24:27.358Z,14.79
2023-01-06T23:26:54.273Z,14.81
2023-01-06T23:29:20.880Z,14.80
2023-01-06T23:31:47.468Z,14.80
2023-01-06T23:34:17.258Z,14.58
2023-01-06T23:36:44.783Z,14.68
2023-01-06T23:39:13.548Z,14.80
2023-01-06T23:41:40.533Z,14.78
2023-01-06T23:44:07.241Z,14.75
2023-01-06T23:46:37.154Z,14.79
2023-01-06T23:49:04.768Z,14.78
2023-01-06T23:51:32.303Z,14.80
2023-01-06T23:53:59.697Z,14.73
2023-01-06T23:56:28.520Z,14.81
2023-01-06T23:58:58.123Z,14.66
